Elcho, Wisconsin
Current Conditions -  °F | °C
As of 6:53 AM on Tuesday 21 Oct 2014 (Local Time) from KRHI Reporting Station
Overcast Overcast  
Wind Chill: 34°   Ceiling: 1200
Heat Index: 38°   Visibility: 10mi
Dew Point: 34°   Wind: 5mph
Humidity: 86%   Direction: 40°NE
Pressure: 30.19"   Gusts: NA
Location:  45.44°N, 89.18°W
Report Text: KRHI 211153Z AUTO 04004KT 10SM OVC012 03/01 A3019 RMK AO2 SLP236 70005 T00330011 10039 20033 53011
Loading
Personal Weather Stations






























Interactive Weather Map New forecast layout! Learn more

10-Day Weather Forecast

Advertisements
Track Severe Weather on mobile